BZV weather

Maya-Maya Airport
Brazzaville, Pool Department, Congo (Brazzaville)

Public forecast

Using degrees Celsius for public forecast. Weather courtesy of forecast.io.

Current aviation weather report (METAR) for Maya-Maya Airport

Retrieved 2020/04/06 10:00 UTC (56 minutes ago):

FCBB 061000Z 04005KT 340V140 9999 FEW017 31/22 Q1015 NOSIG

Aviation forecast (TAF) for Maya-Maya Airport

Retrieved 2020/04/06 06:00 UTC (5 hours ago):

TAF FCBB 060500Z 0606/0712 26004KT 9000 FEW016 BECMG 0612/0614 FEW020 FEW030CB BECMG 0621/0623 SCT018